Time;durP1;ratioP1;P1;durP2;ratioP2;P2;SDS_P1;SDS_P2;PMS_P1;PMS_P2;Temp;Humidity;BMP_temperature;BMP_pressure;BME280_temperature;BME280_humidity;BME280_pressure;Samples;Min_cycle;Max_cycle;Signal;HPM_P1;HPM_P2
2022/09/24 00:01:40;;;;;;;;;;;;;;;10.56;77.51;99240.28;1739867;82;20126;-46
2022/09/24 00:04:09;;;;;;;;;;;;;;;10.59;77.54;99238.80;1739919;82;20109;-46
2022/09/24 00:06:36;;;;;;;;;;;;;;;10.61;77.52;99234.30;1739929;81;20103;-49
2022/09/24 00:09:03;;;;;;;;;;;;;;;10.60;78.04;99235.22;1739041;82;20153;-49
2022/09/24 00:11:30;;;;;;;;;;;;;;;10.61;77.67;99235.61;1739889;82;20114;-49
2022/09/24 00:13:56;;;;;;;;;;;;;;;10.62;77.90;99235.98;1739795;82;20126;-49
2022/09/24 00:16:24;;;;;;;;;;;;;;;10.65;77.98;99225.77;1739826;82;20138;-49
2022/09/24 00:18:50;;;;;;;;;;;;;;;10.66;77.52;99218.24;1739838;82;20109;-49
2022/09/24 00:21:22;;;;;;;;;;;;;;;10.67;77.41;99215.53;1739818;82;20129;-47
2022/09/24 00:23:50;;;;;;;;;;;;;;;10.67;77.18;99214.69;1739908;81;20415;-51
2022/09/24 00:29:00;;;;;;;;;;;;;;;10.69;76.98;99210.19;1739830;82;20154;-47
2022/09/24 00:31:25;;;;;;;;;;;;;;;10.70;77.14;99211.42;1739868;82;20157;-49
2022/09/24 00:33:51;;;;;;;;;;;;;;;10.70;77.12;99204.84;1739782;82;20110;-50
2022/09/24 00:36:19;;;;;;;;;;;;;;;10.68;76.66;99205.41;1739849;82;20102;-48
2022/09/24 00:38:50;;;;;;;;;;;;;;;10.68;76.62;99197.52;1739809;82;20138;-47
2022/09/24 00:41:16;;;;;;;;;;;;;;;10.69;76.56;99194.41;1740957;79;20132;-51
2022/09/24 00:43:42;;;;;;;;;;;;;;;10.69;77.34;99197.88;1739675;82;20416;-48
2022/09/24 00:46:24;;;;;;;;;;;;;;;10.63;76.98;99194.30;1739770;82;20104;-48
2022/09/24 00:48:52;;;;;;;;;;;;;;;10.65;76.70;99195.53;1739803;81;20215;-46
2022/09/24 00:51:22;;;;;;;;;;;;;;;10.64;76.90;99192.06;1739818;82;20104;-48
2022/09/24 00:53:51;;;;;;;;;;;;;;;10.61;77.01;99192.22;1739870;82;20119;-49
2022/09/24 00:56:18;;;;;;;;;;;;;;;10.61;77.06;99183.50;1739910;82;20108;-48
2022/09/24 00:58:47;;;;;;;;;;;;;;;10.55;76.93;99183.34;1739863;82;20136;-48
2022/09/24 01:01:13;;;;;;;;;;;;;;;10.52;76.69;99180.44;1739825;82;20108;-57
2022/09/24 01:03:39;;;;;;;;;;;;;;;10.54;76.95;99177.73;1739966;82;20144;-45
2022/09/24 01:06:06;;;;;;;;;;;;;;;10.53;76.83;99182.16;1739810;81;20187;-48
2022/09/24 01:08:32;;;;;;;;;;;;;;;10.51;76.75;99178.77;1739873;81;20112;-47
2022/09/24 01:11:07;;;;;;;;;;;;;;;10.52;76.50;99181.76;1739856;82;20104;-50
2022/09/24 01:13:54;;;;;;;;;;;;;;;10.51;76.07;99173.95;1739377;81;20433;-49
2022/09/24 01:16:41;;;;;;;;;;;;;;;10.50;76.66;99175.74;1739674;82;20420;-47
2022/09/24 01:19:26;;;;;;;;;;;;;;;10.50;76.55;99172.27;1740040;81;20104;-48
2022/09/24 01:21:56;;;;;;;;;;;;;;;10.51;76.04;99164.75;1739847;82;20144;-46
2022/09/24 01:24:26;;;;;;;;;;;;;;;10.48;76.34;99164.95;1739710;81;20116;-47
2022/09/24 01:27:04;;;;;;;;;;;;;;;10.48;76.99;99164.95;1739322;82;20108;-46
2022/09/24 01:29:53;;;;;;;;;;;;;;;10.45;77.07;99166.42;1711364;82;20430;-48
2022/09/24 01:32:25;;;;;;;;;;;;;;;10.43;76.98;99166.98;1739741;82;20132;-51
2022/09/24 01:34:55;;;;;;;;;;;;;;;10.40;76.96;99169.30;1739782;81;20425;-50
2022/09/24 01:37:22;;;;;;;;;;;;;;;10.41;76.67;99164.44;1739448;82;20116;-49
2022/09/24 01:39:50;;;;;;;;;;;;;;;10.39;77.16;99167.63;1739859;81;20112;-50
2022/09/24 01:42:17;;;;;;;;;;;;;;;10.37;77.23;99163.76;1708829;82;20120;-50
2022/09/24 01:44:43;;;;;;;;;;;;;;;10.38;77.23;99156.71;1739986;82;20133;-49
2022/09/24 01:47:12;;;;;;;;;;;;;;;10.41;77.85;99154.40;1758787;81;20099;-47
2022/09/24 01:49:38;;;;;;;;;;;;;;;10.40;77.15;99154.00;1770113;80;20513;-47
2022/09/24 01:52:06;;;;;;;;;;;;;;;10.41;77.34;99157.03;1770221;80;20618;-48
2022/09/24 01:54:34;;;;;;;;;;;;;;;10.41;77.36;99155.23;1770247;80;20444;-47
2022/09/24 01:57:16;;;;;;;;;;;;;;;10.41;77.20;99151.77;1770248;81;20112;-49
2022/09/24 01:59:48;;;;;;;;;;;;;;;10.39;77.62;99155.80;1770168;81;20159;-47
2022/09/24 02:02:27;;;;;;;;;;;;;;;10.38;77.30;99152.30;1770146;81;20104;-46
2022/09/24 02:04:56;;;;;;;;;;;;;;;10.37;77.59;99154.56;1770220;81;20194;-48
2022/09/24 02:07:38;;;;;;;;;;;;;;;10.37;77.85;99150.62;1770391;80;20099;-49
2022/09/24 02:10:05;;;;;;;;;;;;;;;10.38;78.63;99143.09;1770376;81;20104;-49
2022/09/24 02:12:41;;;;;;;;;;;;;;;10.36;77.82;99142.34;1770325;81;20413;-48
2022/09/24 02:15:13;;;;;;;;;;;;;;;10.38;78.37;99150.14;1769703;81;20413;-48
2022/09/24 02:17:41;;;;;;;;;;;;;;;10.37;77.82;99144.52;1770333;81;20164;-46
2022/09/24 02:20:10;;;;;;;;;;;;;;;10.36;77.53;99148.91;1770395;80;20148;-48
2022/09/24 02:22:37;;;;;;;;;;;;;;;10.35;78.05;99148.55;1769838;81;20409;-50
2022/09/24 02:25:05;;;;;;;;;;;;;;;10.33;77.33;99149.11;1770250;80;20099;-48
2022/09/24 02:27:31;;;;;;;;;;;;;;;10.34;77.33;99145.52;1770335;80;20429;-50
2022/09/24 02:29:58;;;;;;;;;;;;;;;10.34;78.14;99136.33;1770410;80;20112;-47
2022/09/24 02:32:27;;;;;;;;;;;;;;;10.33;78.39;99137.72;1770298;81;20104;-45
2022/09/24 02:35:00;;;;;;;;;;;;;;;10.32;77.95;99138.20;1769832;81;20111;-46
2022/09/24 02:37:25;;;;;;;;;;;;;;;10.33;78.19;99137.72;1770309;80;20104;-47
2022/09/24 02:39:51;;;;;;;;;;;;;;;10.34;78.50;99142.06;1770259;81;20436;-49
2022/09/24 02:42:19;;;;;;;;;;;;;;;10.29;77.67;99135.70;1750270;78;20119;-48
2022/09/24 02:44:46;;;;;;;;;;;;;;;10.28;77.28;99140.59;1755359;82;20098;-45
2022/09/24 02:47:12;;;;;;;;;;;;;;;10.25;76.34;99132.87;1754998;82;20110;-47
2022/09/24 02:49:37;;;;;;;;;;;;;;;10.27;76.33;99129.69;1755429;81;20135;-48
2022/09/24 02:52:03;;;;;;;;;;;;;;;10.34;76.97;99129.75;1755349;80;20105;-47
2022/09/24 02:54:30;;;;;;;;;;;;;;;10.36;76.79;99130.98;1755330;82;20114;-48
2022/09/24 02:56:56;;;;;;;;;;;;;;;10.36;76.38;99133.14;1755262;80;20106;-48
2022/09/24 02:59:21;;;;;;;;;;;;;;;10.37;77.18;99131.38;1755297;81;20111;-47
2022/09/24 03:01:47;;;;;;;;;;;;;;;10.40;77.21;99127.72;1754941;81;20110;-46
2022/09/24 03:04:13;;;;;;;;;;;;;;;10.42;76.79;99128.47;1755407;80;20430;-48
2022/09/24 03:06:39;;;;;;;;;;;;;;;10.43;76.33;99127.55;1755345;82;20095;-50
2022/09/24 03:09:04;;;;;;;;;;;;;;;10.44;75.58;99123.97;1755272;82;20099;-48
2022/09/24 03:11:31;;;;;;;;;;;;;;;10.45;76.45;99120.42;1755230;81;20189;-52
2022/09/24 03:13:58;;;;;;;;;;;;;;;10.48;77.46;99113.20;1755324;82;20403;-49
2022/09/24 03:16:24;;;;;;;;;;;;;;;10.49;76.61;99120.61;1755398;81;20135;-48
2022/09/24 03:18:49;;;;;;;;;;;;;;;10.50;77.40;99115.27;1755291;81;20419;-50
2022/09/24 03:21:17;;;;;;;;;;;;;;;10.51;76.15;99116.98;1755303;81;20133;-51
2022/09/24 03:23:43;;;;;;;;;;;;;;;10.54;75.67;99121.20;1755322;81;20098;-49
2022/09/24 03:26:09;;;;;;;;;;;;;;;10.55;75.47;99122.44;1755235;80;20114;-46
2022/09/24 03:28:35;;;;;;;;;;;;;;;10.57;75.02;99113.14;1755393;82;20134;-49
2022/09/24 03:31:01;;;;;;;;;;;;;;;10.59;75.30;99116.97;1755268;82;20122;-50
2022/09/24 03:33:30;;;;;;;;;;;;;;;10.60;75.07;99114.26;1755301;81;20138;-48
2022/09/24 03:35:57;;;;;;;;;;;;;;;10.63;75.28;99109.30;1755335;82;20118;-46
2022/09/24 03:38:23;;;;;;;;;;;;;;;10.63;74.77;99114.09;1755305;81;20106;-49
2022/09/24 03:40:49;;;;;;;;;;;;;;;10.63;75.54;99111.45;1755432;81;20415;-47
2022/09/24 03:43:14;;;;;;;;;;;;;;;10.64;75.52;99111.85;1755236;82;20130;-49
2022/09/24 03:45:40;;;;;;;;;;;;;;;10.67;75.28;99112.97;1755304;82;20107;-48
2022/09/24 03:48:06;;;;;;;;;;;;;;;10.67;74.94;99116.91;1755486;81;20109;-51
2022/09/24 03:50:35;;;;;;;;;;;;;;;10.69;74.76;99115.03;1755241;82;20110;-49
2022/09/24 03:53:00;;;;;;;;;;;;;;;10.69;73.64;99113.72;1754057;82;20138;-53
2022/09/24 03:55:26;;;;;;;;;;;;;;;10.72;73.65;99119.28;1755244;81;20098;-49
2022/09/24 03:57:52;;;;;;;;;;;;;;;10.71;72.61;99116.27;1755418;82;20114;-46
2022/09/24 04:00:17;;;;;;;;;;;;;;;10.71;72.41;99122.39;1755517;82;20399;-48
2022/09/24 04:02:43;;;;;;;;;;;;;;;10.74;73.97;99123.98;1755259;82;20102;-49
2022/09/24 04:05:09;;;;;;;;;;;;;;;10.75;73.53;99119.08;1755258;82;20134;-51
2022/09/24 04:07:34;;;;;;;;;;;;;;;10.75;73.99;99121.27;1755261;82;20106;-48
2022/09/24 04:10:00;;;;;;;;;;;;;;;10.78;73.97;99123.34;1755307;81;20502;-48
2022/09/24 04:12:26;;;;;;;;;;;;;;;10.75;74.46;99122.58;1750175;80;20100;-49
2022/09/24 04:14:51;;;;;;;;;;;;;;;10.73;73.94;99124.46;1734079;83;20096;-51
2022/09/24 04:17:17;;;;;;;;;;;;;;;10.71;73.89;99120.20;1734081;83;20103;-47
2022/09/24 04:19:43;;;;;;;;;;;;;;;10.67;74.97;99116.91;1734213;83;20100;-49
2022/09/24 04:22:08;;;;;;;;;;;;;;;10.65;74.86;99119.27;1734173;81;20095;-49
2022/09/24 04:24:34;;;;;;;;;;;;;;;10.64;74.84;99119.74;1734293;83;20099;-50
2022/09/24 04:26:59;;;;;;;;;;;;;;;10.62;75.50;99120.75;1734247;83;20096;-49
2022/09/24 04:29:25;;;;;;;;;;;;;;;10.61;75.07;99119.08;1734187;81;20104;-51
2022/09/24 04:31:50;;;;;;;;;;;;;;;10.61;75.16;99123.02;1734215;83;20131;-46
2022/09/24 04:34:16;;;;;;;;;;;;;;;10.61;75.06;99119.08;1734241;83;20096;-48
2022/09/24 04:36:42;;;;;;;;;;;;;;;10.58;74.63;99114.82;1734299;83;20412;-51
2022/09/24 04:39:08;;;;;;;;;;;;;;;10.58;75.41;99108.25;1734187;83;20146;-46
2022/09/24 04:41:34;;;;;;;;;;;;;;;10.58;75.42;99110.88;1733627;83;20165;-47
2022/09/24 04:44:00;;;;;;;;;;;;;;;10.56;75.26;99107.49;1726210;83;20437;-49
2022/09/24 04:46:25;;;;;;;;;;;;;;;10.56;74.58;99108.80;1726097;83;20113;-49
2022/09/24 04:48:52;;;;;;;;;;;;;;;10.56;75.22;99110.13;1726137;83;20136;-50
2022/09/24 04:51:20;;;;;;;;;;;;;;;10.56;74.95;99112.27;1726147;83;20101;-47
2022/09/24 04:53:46;;;;;;;;;;;;;;;10.59;75.63;99109.95;1726181;82;20140;-51
2022/09/24 04:56:12;;;;;;;;;;;;;;;10.57;74.78;99107.89;1726234;83;20203;-47
2022/09/24 04:58:38;;;;;;;;;;;;;;;10.58;74.75;99105.62;1726161;83;20137;-48
2022/09/24 05:01:04;;;;;;;;;;;;;;;10.61;75.04;99101.50;1726152;82;20113;-49
2022/09/24 05:03:30;;;;;;;;;;;;;;;10.60;73.57;99104.22;1726084;83;20113;-48
2022/09/24 05:05:55;;;;;;;;;;;;;;;10.62;74.13;99107.13;1726079;83;20104;-49
2022/09/24 05:08:21;;;;;;;;;;;;;;;10.61;74.67;99105.92;1726170;83;20100;-49
2022/09/24 05:10:47;;;;;;;;;;;;;;;10.63;74.38;99101.42;1726110;83;20132;-47
2022/09/24 05:13:13;;;;;;;;;;;;;;;10.63;74.17;99100.11;1726137;81;20113;-49
2022/09/24 05:15:38;;;;;;;;;;;;;;;10.64;73.79;99101.34;1726298;81;20418;-49
2022/09/24 05:18:05;;;;;;;;;;;;;;;10.67;75.22;99102.45;1726123;83;20116;-50
2022/09/24 05:20:30;;;;;;;;;;;;;;;10.68;73.88;99098.06;1726080;83;20120;-51
2022/09/24 05:22:56;;;;;;;;;;;;;;;10.71;73.66;99098.72;1722227;83;20457;-49
2022/09/24 05:25:22;;;;;;;;;;;;;;;10.74;73.58;99091.95;1701142;84;20129;-46
2022/09/24 05:27:54;;;;;;;;;;;;;;;10.76;74.32;99093.17;1701272;84;20155;-50
2022/09/24 05:30:22;;;;;;;;;;;;;;;10.78;74.02;99099.66;1701249;83;20117;-48
2022/09/24 05:32:50;;;;;;;;;;;;;;;10.77;73.15;99098.83;1701219;84;20133;-47
2022/09/24 05:35:15;;;;;;;;;;;;;;;10.79;73.75;99101.34;1701148;83;20106;-50
2022/09/24 05:37:41;;;;;;;;;;;;;;;10.80;73.43;99097.78;1701191;84;20122;-48
2022/09/24 05:42:53;;;;;;;;;;;;;;;10.81;73.97;99099.49;1726292;82;20111;-48
2022/09/24 05:45:19;;;;;;;;;;;;;;;10.85;73.75;99102.31;1754545;82;20095;-47
2022/09/24 05:47:45;;;;;;;;;;;;;;;10.87;73.24;99099.11;1755426;82;20427;-50
2022/09/24 05:50:12;;;;;;;;;;;;;;;10.87;72.56;99095.17;1755366;82;20162;-49
2022/09/24 05:52:39;;;;;;;;;;;;;;;10.89;73.81;99099.87;1755374;81;20427;-47
2022/09/24 05:55:05;;;;;;;;;;;;;;;10.89;72.67;99098.08;1755393;82;20095;-50
2022/09/24 05:57:33;;;;;;;;;;;;;;;10.92;72.52;99104.95;1755450;82;20418;-49
2022/09/24 05:59:58;;;;;;;;;;;;;;;10.94;72.19;99099.13;1755391;81;20533;-50
2022/09/24 06:02:24;;;;;;;;;;;;;;;10.96;72.22;99103.83;1755460;81;20142;-49
2022/09/24 06:04:50;;;;;;;;;;;;;;;11.00;72.85;99107.95;1755671;82;20094;-46
2022/09/24 06:07:15;;;;;;;;;;;;;;;11.01;72.29;99107.52;1755347;81;20220;-47
2022/09/24 06:09:41;;;;;;;;;;;;;;;11.01;71.73;99109.66;1755404;82;20408;-46
2022/09/24 06:12:09;;;;;;;;;;;;;;;11.06;71.64;99108.05;1755359;82;20122;-47
2022/09/24 06:14:35;;;;;;;;;;;;;;;11.08;72.41;99104.41;1755252;82;20115;-50
2022/09/24 06:17:00;;;;;;;;;;;;;;;11.08;71.85;99103.57;1755390;81;20130;-47
2022/09/24 06:19:26;;;;;;;;;;;;;;;11.10;72.99;99105.16;1755355;82;20111;-53
2022/09/24 06:21:52;;;;;;;;;;;;;;;11.16;72.33;99107.05;1755326;82;20115;-49
2022/09/24 06:24:17;;;;;;;;;;;;;;;11.19;72.44;99105.08;1755341;82;20110;-49
2022/09/24 06:26:43;;;;;;;;;;;;;;;11.23;72.89;99102.63;1755375;81;20136;-47
2022/09/24 06:29:08;;;;;;;;;;;;;;;11.26;71.75;99104.22;1755387;81;20110;-48
2022/09/24 06:31:34;;;;;;;;;;;;;;;11.31;72.75;99099.52;1755274;82;20423;-50
2022/09/24 06:34:01;;;;;;;;;;;;;;;11.32;71.27;99103.38;1755319;82;20114;-50
2022/09/24 06:36:28;;;;;;;;;;;;;;;11.38;70.51;99103.95;1755343;82;20419;-49
2022/09/24 06:38:53;;;;;;;;;;;;;;;11.41;70.81;99096.70;1755375;82;20126;-51
2022/09/24 06:41:19;;;;;;;;;;;;;;;11.46;71.12;99103.86;1755365;82;20395;-45
2022/09/24 06:43:45;;;;;;;;;;;;;;;11.47;70.33;99102.89;1749015;82;20103;-49
2022/09/24 06:46:13;;;;;;;;;;;;;;;11.48;71.17;99111.19;1746843;81;20114;-49
2022/09/24 06:48:38;;;;;;;;;;;;;;;11.49;70.51;99101.01;1746820;81;20110;-48
2022/09/24 06:51:04;;;;;;;;;;;;;;;11.55;71.50;99105.53;1746851;82;20730;-47
2022/09/24 06:53:30;;;;;;;;;;;;;;;11.52;70.14;99103.47;1746799;81;20412;-46
2022/09/24 06:56:02;;;;;;;;;;;;;;;11.54;69.63;99107.32;1746822;81;20103;-49
2022/09/24 06:58:28;;;;;;;;;;;;;;;11.61;70.87;99103.37;1746835;81;20147;-46
2022/09/24 07:00:59;;;;;;;;;;;;;;;11.68;70.84;99100.72;1746844;82;20487;-48
2022/09/24 07:03:26;;;;;;;;;;;;;;;11.75;70.07;99098.56;1747056;81;20135;-48
2022/09/24 07:05:52;;;;;;;;;;;;;;;11.80;69.07;99103.04;1746867;81;20111;-46
2022/09/24 07:08:17;;;;;;;;;;;;;;;11.88;69.15;99098.62;1746847;82;20126;-48
2022/09/24 07:10:44;;;;;;;;;;;;;;;11.94;68.92;99102.20;1746791;82;20115;-47
2022/09/24 07:13:12;;;;;;;;;;;;;;;11.98;68.63;99095.78;1746769;81;20115;-49
2022/09/24 07:15:38;;;;;;;;;;;;;;;12.10;69.25;99106.03;1746871;81;20115;-48
2022/09/24 07:18:04;;;;;;;;;;;;;;;12.16;68.12;99109.57;1747037;81;20158;-49
2022/09/24 07:20:32;;;;;;;;;;;;;;;12.21;67.96;99107.48;1746842;81;20107;-48
2022/09/24 07:22:58;;;;;;;;;;;;;;;12.30;67.80;99112.64;1746976;80;20155;-48
2022/09/24 07:25:24;;;;;;;;;;;;;;;12.32;67.14;99119.14;1746822;82;20151;-48
2022/09/24 07:27:49;;;;;;;;;;;;;;;12.42;67.90;99116.25;1746787;81;20637;-47
2022/09/24 07:30:15;;;;;;;;;;;;;;;12.48;68.04;99114.55;1746923;81;20135;-48
2022/09/24 07:32:41;;;;;;;;;;;;;;;12.50;67.01;99111.33;1715889;82;20135;-47
2022/09/24 07:35:08;;;;;;;;;;;;;;;12.58;66.90;99122.20;1746782;82;20403;-48
2022/09/24 07:37:33;;;;;;;;;;;;;;;12.67;67.28;99125.55;1746797;82;20099;-49
2022/09/24 07:39:59;;;;;;;;;;;;;;;12.74;66.10;99127.80;1746787;82;20103;-48
2022/09/24 07:42:25;;;;;;;;;;;;;;;12.81;66.49;99131.23;1747319;82;20103;-47
2022/09/24 07:44:50;;;;;;;;;;;;;;;12.85;65.21;99135.34;1747527;80;20148;-49
2022/09/24 07:47:16;;;;;;;;;;;;;;;12.87;64.18;99135.25;1736170;82;20175;-52
2022/09/24 07:49:43;;;;;;;;;;;;;;;12.91;64.07;99137.21;1736320;83;20405;-52
2022/09/24 07:52:09;;;;;;;;;;;;;;;12.93;64.21;99135.31;1736204;83;20416;-50
2022/09/24 07:54:35;;;;;;;;;;;;;;;12.97;65.25;99135.02;1736197;82;20104;-48
2022/09/24 07:57:01;;;;;;;;;;;;;;;13.03;64.65;99134.58;1736122;83;20415;-49
2022/09/24 07:59:27;;;;;;;;;;;;;;;13.05;64.48;99134.00;1736126;83;20131;-48
2022/09/24 08:01:53;;;;;;;;;;;;;;;13.03;63.37;99135.06;1736143;83;20397;-51
2022/09/24 08:04:18;;;;;;;;;;;;;;;13.12;64.00;99127.00;1736286;83;20139;-46
2022/09/24 08:06:44;;;;;;;;;;;;;;;13.17;63.65;99128.38;1736276;83;20143;-48
2022/09/24 08:09:10;;;;;;;;;;;;;;;13.27;63.31;99132.53;1736386;83;20107;-48
2022/09/24 08:11:36;;;;;;;;;;;;;;;13.34;65.11;99129.88;1736326;83;20131;-51
2022/09/24 08:14:01;;;;;;;;;;;;;;;13.39;63.46;99126.44;1736254;82;20143;-49
2022/09/24 08:16:27;;;;;;;;;;;;;;;13.46;63.05;99129.97;1736253;83;20143;-48
2022/09/24 08:18:53;;;;;;;;;;;;;;;13.53;63.69;99124.63;1736130;83;20424;-48
2022/09/24 08:21:19;;;;;;;;;;;;;;;13.57;62.32;99120.80;1736198;83;20146;-46
2022/09/24 08:23:45;;;;;;;;;;;;;;;13.63;63.72;99127.84;1736149;83;20139;-51
2022/09/24 08:26:11;;;;;;;;;;;;;;;13.62;63.13;99120.88;1736246;83;20478;-49
2022/09/24 08:28:39;;;;;;;;;;;;;;;13.65;61.99;99122.94;1736428;82;20111;-52
2022/09/24 08:31:08;;;;;;;;;;;;;;;13.71;63.21;99128.61;1736214;83;20108;-52
2022/09/24 08:33:35;;;;;;;;;;;;;;;13.73;61.90;99128.50;1736176;82;20112;-49
2022/09/24 08:36:02;;;;;;;;;;;;;;;13.80;60.92;99130.59;1736236;83;20095;-53
2022/09/24 08:38:28;;;;;;;;;;;;;;;13.85;60.53;99131.60;1736205;83;20108;-49
2022/09/24 08:41:00;;;;;;;;;;;;;;;13.93;62.33;99132.37;1736156;83;20186;-52
2022/09/24 08:43:46;;;;;;;;;;;;;;;13.98;60.74;99138.17;1739385;82;20126;-46
2022/09/24 08:49:04;;;;;;;;;;;;;;;14.03;61.04;99130.77;1744555;82;20443;-47
2022/09/24 08:51:35;;;;;;;;;;;;;;;14.11;60.35;99124.42;1744682;82;20107;-48
2022/09/24 08:54:09;;;;;;;;;;;;;;;14.18;59.98;99129.63;1744609;82;20099;-45
2022/09/24 08:56:37;;;;;;;;;;;;;;;14.29;60.96;99126.20;1744519;82;20104;-47
2022/09/24 08:59:07;;;;;;;;;;;;;;;14.35;62.26;99120.48;1744699;82;20127;-48
2022/09/24 09:01:48;;;;;;;;;;;;;;;14.46;61.65;99125.44;1716762;82;20115;-52
2022/09/24 09:04:32;;;;;;;;;;;;;;;14.52;60.16;99125.84;1744521;82;20103;-54
2022/09/24 09:07:04;;;;;;;;;;;;;;;14.55;60.51;99124.30;1744576;82;20103;-49
2022/09/24 09:09:45;;;;;;;;;;;;;;;14.59;59.56;99123.14;1744425;82;20505;-51
2022/09/24 09:12:14;;;;;;;;;;;;;;;14.70;59.81;99121.50;1743675;82;20115;-49
2022/09/24 09:14:53;;;;;;;;;;;;;;;14.84;60.46;99125.25;1727470;82;20135;-46
2022/09/24 09:17:25;;;;;;;;;;;;;;;14.93;59.42;99122.39;1744541;82;20111;-46
2022/09/24 09:19:54;;;;;;;;;;;;;;;14.98;58.17;99124.22;1744368;82;20424;-48
2022/09/24 09:22:22;;;;;;;;;;;;;;;15.05;57.60;99122.78;1744451;82;20103;-50
2022/09/24 09:24:50;;;;;;;;;;;;;;;15.14;58.19;99119.92;1744521;82;20107;-47
2022/09/24 09:27:18;;;;;;;;;;;;;;;15.19;58.83;99120.41;1744555;82;20107;-50
2022/09/24 09:29:46;;;;;;;;;;;;;;;15.23;57.48;99119.20;1744551;82;20091;-50
2022/09/24 09:32:27;;;;;;;;;;;;;;;15.36;57.76;99118.61;1744515;82;20115;-48
2022/09/24 09:35:14;;;;;;;;;;;;;;;15.46;57.79;99116.56;1744393;82;20146;-48
2022/09/24 09:37:55;;;;;;;;;;;;;;;15.54;56.37;99118.14;1744720;82;20095;-48
2022/09/24 09:40:25;;;;;;;;;;;;;;;15.65;56.70;99114.16;1744505;82;20137;-48
2022/09/24 09:42:54;;;;;;;;;;;;;;;15.73;55.79;99116.19;1744009;82;20428;-49
2022/09/24 09:45:31;;;;;;;;;;;;;;;15.81;56.38;99111.16;1727504;83;20109;-48
2022/09/24 09:47:58;;;;;;;;;;;;;;;15.91;55.57;99112.59;1728536;83;20481;-48
2022/09/24 09:50:35;;;;;;;;;;;;;;;15.97;55.70;99117.42;1728317;83;20097;-48
2022/09/24 09:53:01;;;;;;;;;;;;;;;15.99;54.27;99111.96;1728436;83;20116;-49
2022/09/24 09:55:35;;;;;;;;;;;;;;;16.06;54.86;99118.45;1728277;83;20116;-51
2022/09/24 09:58:23;;;;;;;;;;;;;;;16.10;55.11;99111.96;1728355;83;20777;-49
2022/09/24 10:00:49;;;;;;;;;;;;;;;16.22;55.14;99108.78;1728327;83;20161;-51
2022/09/24 10:03:46;;;;;;;;;;;;;;;16.30;54.10;99107.69;1728285;83;20165;-49
2022/09/24 10:06:23;;;;;;;;;;;;;;;16.27;52.94;99107.43;1728310;83;20105;-49
2022/09/24 10:08:49;;;;;;;;;;;;;;;16.33;54.07;99106.58;1724130;83;20104;-47
2022/09/24 10:11:16;;;;;;;;;;;;;;;16.47;54.46;99112.42;1728569;83;20471;-51
2022/09/24 10:13:42;;;;;;;;;;;;;;;16.55;53.83;99109.63;1728350;83;20101;-48
2022/09/24 10:16:12;;;;;;;;;;;;;;;16.63;53.43;99109.84;1728343;83;20128;-50
2022/09/24 10:18:44;;;;;;;;;;;;;;;16.62;52.67;99112.13;1728355;83;20164;-47
2022/09/24 10:21:13;;;;;;;;;;;;;;;16.59;50.28;99115.03;1728183;83;20420;-49
2022/09/24 10:23:41;;;;;;;;;;;;;;;16.67;50.75;99109.44;1728307;82;20105;-51
2022/09/24 10:26:08;;;;;;;;;;;;;;;16.80;50.61;99098.63;1697481;83;20116;-46
2022/09/24 10:31:22;;;;;;;;;;;;;;;17.13;51.29;99091.95;1671358;83;20157;-48
2022/09/24 10:33:49;;;;;;;;;;;;;;;17.25;49.10;99088.24;1728512;83;20426;-51
2022/09/24 10:36:23;;;;;;;;;;;;;;;17.37;46.00;99088.98;1728462;83;20113;-50
2022/09/24 10:39:01;;;;;;;;;;;;;;;17.45;46.69;99087.84;1728463;82;20147;-50
2022/09/24 10:41:28;;;;;;;;;;;;;;;17.54;45.48;99083.55;1728404;83;20108;-51
2022/09/24 10:43:56;;;;;;;;;;;;;;;17.71;47.73;99079.39;1731132;82;20103;-49
2022/09/24 10:46:43;;;;;;;;;;;;;;;17.79;47.27;99084.39;1736273;83;20100;-49
2022/09/24 10:49:16;;;;;;;;;;;;;;;17.76;44.38;99083.83;1735781;82;20336;-48
2022/09/24 10:52:09;;;;;;;;;;;;;;;18.01;46.59;99087.34;1735065;83;20143;-50
2022/09/24 10:55:11;;;;;;;;;;;;;;;18.35;44.88;99076.29;1735566;83;20438;-50
2022/09/24 10:57:43;;;;;;;;;;;;;;;18.93;41.91;99078.59;1736253;83;20107;-46
2022/09/24 11:00:19;;;;;;;;;;;;;;;19.02;42.07;99079.06;1736070;82;20116;-48
2022/09/24 11:02:58;;;;;;;;;;;;;;;18.93;41.98;99079.92;1735366;82;20142;-48
2022/09/24 11:05:28;;;;;;;;;;;;;;;19.14;41.19;99071.25;1734855;83;20155;-49
2022/09/24 11:08:00;;;;;;;;;;;;;;;19.77;40.76;99072.41;1734658;82;20186;-48
2022/09/24 11:10:38;;;;;;;;;;;;;;;20.10;38.50;99072.75;1734980;83;20162;-49
2022/09/24 11:13:23;;;;;;;;;;;;;;;20.69;36.89;99074.00;1733856;82;20158;-51
2022/09/24 11:15:57;;;;;;;;;;;;;;;21.32;37.28;99072.09;1736638;80;20155;-52
2022/09/24 11:18:35;;;;;;;;;;;;;;;21.50;35.99;99075.20;1755402;82;20649;-48
2022/09/24 11:21:24;;;;;;;;;;;;;;;21.56;34.76;99071.89;1755262;82;20424;-53
2022/09/24 11:24:12;;;;;;;;;;;;;;;21.83;34.03;99070.32;1754748;81;20414;-52
2022/09/24 11:27:03;;;;;;;;;;;;;;;21.99;31.20;99069.53;1755372;82;20454;-47
2022/09/24 11:29:41;;;;;;;;;;;;;;;22.26;32.83;99056.87;1729401;82;20470;-48
2022/09/24 11:32:25;;;;;;;;;;;;;;;22.73;31.09;99060.23;1727122;83;20296;-51
2022/09/24 11:34:55;;;;;;;;;;;;;;;22.94;31.00;99062.41;1728044;83;20139;-53
2022/09/24 11:37:56;;;;;;;;;;;;;;;22.70;31.49;99059.73;1727614;82;20144;-47
2022/09/24 11:40:51;;;;;;;;;;;;;;;22.45;31.89;99061.09;1728196;83;20184;-50
2022/09/24 11:43:47;;;;;;;;;;;;;;;22.27;33.15;99055.88;1728244;82;20200;-51
2022/09/24 11:46:35;;;;;;;;;;;;;;;21.86;32.94;99059.77;1728274;83;20227;-51
2022/09/24 11:49:19;;;;;;;;;;;;;;;21.55;33.66;99060.33;1728026;82;20116;-48
2022/09/24 11:51:57;;;;;;;;;;;;;;;20.80;34.48;99062.73;1729495;83;20109;-50
2022/09/24 11:54:39;;;;;;;;;;;;;;;20.82;35.30;99060.73;1729399;82;20129;-50
2022/09/24 11:57:14;;;;;;;;;;;;;;;20.49;36.06;99061.79;1729345;82;20524;-51
2022/09/24 11:59:44;;;;;;;;;;;;;;;20.37;36.66;99059.00;1729558;83;20120;-52
2022/09/24 12:02:19;;;;;;;;;;;;;;;20.22;37.59;99066.72;1729506;82;20109;-50
2022/09/24 12:05:13;;;;;;;;;;;;;;;20.08;38.02;99061.39;1721685;82;20120;-50
2022/09/24 12:07:54;;;;;;;;;;;;;;;19.94;37.42;99058.27;1755190;82;20177;-51
2022/09/24 12:10:28;;;;;;;;;;;;;;;19.99;37.92;99058.30;1754907;81;20423;-48
2022/09/24 12:12:57;;;;;;;;;;;;;;;20.13;38.39;99059.12;1755107;82;20396;-49
2022/09/24 12:15:30;;;;;;;;;;;;;;;20.18;37.54;99052.83;1753998;82;20455;-46
2022/09/24 12:18:00;;;;;;;;;;;;;;;19.97;37.27;99045.10;1753311;82;20115;-46
2022/09/24 12:20:33;;;;;;;;;;;;;;;19.63;38.31;99045.72;1754147;81;20161;-53
2022/09/24 12:23:11;;;;;;;;;;;;;;;19.52;38.76;99044.09;1753489;81;20234;-48
2022/09/24 12:25:39;;;;;;;;;;;;;;;19.44;39.61;99041.30;1733026;81;20175;-47
2022/09/24 12:28:09;;;;;;;;;;;;;;;19.24;39.91;99048.55;1754748;82;20126;-44
2022/09/24 12:33:31;;;;;;;;;;;;;;;19.09;40.00;99041.52;1755415;82;20111;-51
2022/09/24 12:36:16;;;;;;;;;;;;;;;18.68;39.84;99040.91;1694287;85;20139;-50
2022/09/24 12:38:45;;;;;;;;;;;;;;;18.63;40.28;99042.30;1694346;84;20111;-48
2022/09/24 12:41:26;;;;;;;;;;;;;;;18.37;40.49;99037.09;1691594;85;20169;-46
2022/09/24 12:43:57;;;;;;;;;;;;;;;18.18;40.14;99037.91;1694344;84;20111;-48
2022/09/24 12:46:32;;;;;;;;;;;;;;;18.13;40.48;99041.47;1694498;85;20111;-47
2022/09/24 12:48:58;;;;;;;;;;;;;;;17.97;41.22;99034.06;1694093;85;20107;-49
2022/09/24 12:51:35;;;;;;;;;;;;;;;17.91;40.64;99034.59;1694450;85;20171;-49
2022/09/24 12:54:20;;;;;;;;;;;;;;;18.37;41.93;99031.77;1694415;85;20522;-47
2022/09/24 12:56:46;;;;;;;;;;;;;;;19.73;38.57;99034.52;1694237;85;20438;-51
2022/09/24 12:59:27;;;;;;;;;;;;;;;20.51;37.11;99034.42;1694429;85;20135;-50
2022/09/24 13:01:53;;;;;;;;;;;;;;;20.33;37.97;99034.44;1694319;85;20478;-48
2022/09/24 13:04:24;;;;;;;;;;;;;;;19.85;36.69;99029.81;1694390;85;20147;-48
2022/09/24 13:06:49;;;;;;;;;;;;;;;19.38;36.52;99028.08;1694302;85;20439;-49
2022/09/24 13:09:36;;;;;;;;;;;;;;;19.10;38.27;99032.55;1693125;84;20131;-48
2022/09/24 13:12:05;;;;;;;;;;;;;;;18.81;38.42;99031.31;1693819;82;20453;-49
2022/09/24 13:14:32;;;;;;;;;;;;;;;18.52;38.61;99027.30;1748496;81;20450;-48
2022/09/24 13:16:58;;;;;;;;;;;;;;;18.19;40.17;99026.30;1749361;81;20107;-47